Time;durP1;ratioP1;P1;durP2;ratioP2;P2;SDS_P1;SDS_P2;PMS_P1;PMS_P2;Temp;Humidity;BMP_temperature;BMP_pressure;BME280_temperature;BME280_humidity;BME280_pressure;Samples;Min_cycle;Max_cycle;Signal;HPM_P1;HPM_P2
2023/06/20 00:00:27;;;;;;;6.22;4.20;;;22.50;99.90;;;;;;5054841;28;20574;-58
2023/06/20 00:02:54;;;;;;;4.35;3.78;;;22.50;99.90;;;;;;5054711;28;20222;-57
2023/06/20 00:05:21;;;;;;;4.72;4.13;;;22.60;99.90;;;;;;5054634;28;20232;-57
2023/06/20 00:07:47;;;;;;;4.60;4.20;;;22.60;99.90;;;;;;5054443;28;20263;-57
2023/06/20 00:10:14;;;;;;;4.07;3.72;;;22.70;99.90;;;;;;5054462;28;20216;-58
2023/06/20 00:12:42;;;;;;;4.35;4.00;;;22.80;99.90;;;;;;5054569;28;20209;-57
2023/06/20 00:15:09;;;;;;;4.40;4.00;;;22.80;99.90;;;;;;5054587;28;20229;-56
2023/06/20 00:17:38;;;;;;;4.25;3.85;;;22.90;99.90;;;;;;5054137;28;20209;-58
2023/06/20 00:20:06;;;;;;;5.25;4.05;;;23.00;99.90;;;;;;5054544;28;20236;-57
2023/06/20 00:22:34;;;;;;;4.28;3.88;;;23.10;99.90;;;;;;5054552;28;20761;-57
2023/06/20 00:25:01;;;;;;;4.60;3.53;;;23.20;99.90;;;;;;5054265;28;20210;-56
2023/06/20 00:27:28;;;;;;;5.53;4.10;;;23.30;99.90;;;;;;5054301;28;20206;-57
2023/06/20 00:29:56;;;;;;;6.60;4.40;;;23.30;99.90;;;;;;5054262;28;20213;-57
2023/06/20 00:32:23;;;;;;;5.07;4.03;;;23.40;99.90;;;;;;5054209;28;20213;-57
2023/06/20 00:34:50;;;;;;;5.07;3.60;;;23.50;99.90;;;;;;5054743;28;20629;-56
2023/06/20 00:37:16;;;;;;;4.25;3.85;;;23.50;99.90;;;;;;5054268;28;20220;-57
2023/06/20 00:39:43;;;;;;;4.30;3.90;;;23.60;99.90;;;;;;5054258;28;20263;-58
2023/06/20 00:42:18;;;;;;;4.82;4.32;;;23.60;99.90;;;;;;5054122;28;20241;-58
2023/06/20 00:44:45;;;;;;;7.68;3.90;;;23.60;99.90;;;;;;5053978;28;20295;-58
2023/06/20 00:47:16;;;;;;;4.50;4.10;;;23.60;99.90;;;;;;5053811;28;20205;-57
2023/06/20 00:49:44;;;;;;;4.80;4.30;;;23.50;99.90;;;;;;5053755;28;20300;-57
2023/06/20 00:52:11;;;;;;;4.47;4.07;;;23.60;99.90;;;;;;5053966;28;20259;-58
2023/06/20 00:54:38;;;;;;;4.72;4.22;;;23.60;99.90;;;;;;5053971;28;20315;-58
2023/06/20 00:57:05;;;;;;;6.50;3.90;;;23.60;99.90;;;;;;5053536;28;20264;-58
2023/06/20 00:59:32;;;;;;;32.60;5.97;;;23.50;99.90;;;;;;5053806;28;20210;-58
2023/06/20 01:01:59;;;;;;;8.75;4.13;;;23.50;99.90;;;;;;5053411;28;20290;-57
2023/06/20 01:04:29;;;;;;;5.35;4.63;;;23.60;99.90;;;;;;5053894;28;20213;-59
2023/06/20 01:07:04;;;;;;;5.40;4.65;;;23.70;99.90;;;;;;5053363;28;20493;-58
2023/06/20 01:09:44;;;;;;;5.00;4.50;;;23.70;99.90;;;;;;5053630;28;20234;-58
2023/06/20 01:12:21;;;;;;;4.88;4.30;;;23.70;99.90;;;;;;5053486;28;20205;-58
2023/06/20 01:14:57;;;;;;;11.07;4.75;;;23.70;99.90;;;;;;5053252;28;20209;-57
2023/06/20 01:17:29;;;;;;;4.88;4.38;;;23.60;99.90;;;;;;5053161;28;20271;-58
2023/06/20 01:20:06;;;;;;;5.72;4.28;;;23.50;99.90;;;;;;5053460;28;20611;-57
2023/06/20 01:22:41;;;;;;;6.50;4.97;;;23.40;99.90;;;;;;5053073;28;20232;-56
2023/06/20 01:25:12;;;;;;;6.18;4.60;;;23.30;99.90;;;;;;5078810;23;20229;-58
2023/06/20 01:27:47;;;;;;;11.48;4.80;;;23.30;99.90;;;;;;5043906;28;20214;-59
2023/06/20 01:30:21;;;;;;;8.55;4.70;;;23.30;99.90;;;;;;5052835;28;20213;-59
2023/06/20 01:32:49;;;;;;;8.57;5.10;;;23.30;99.90;;;;;;5052714;28;20206;-58
2023/06/20 01:35:19;;;;;;;4.82;4.43;;;23.20;99.90;;;;;;5049814;28;20202;-59
2023/06/20 01:37:52;;;;;;;6.43;4.68;;;23.20;99.90;;;;;;5032408;28;20567;-59
2023/06/20 01:40:21;;;;;;;5.07;4.57;;;23.20;99.90;;;;;;5032827;28;20234;-59
2023/06/20 01:42:49;;;;;;;4.80;4.30;;;23.10;99.90;;;;;;5032397;28;20711;-59
2023/06/20 01:45:18;;;;;;;5.35;4.50;;;23.10;99.90;;;;;;5032440;28;20260;-58
2023/06/20 01:47:47;;;;;;;7.28;4.78;;;23.00;99.90;;;;;;5032134;28;20214;-58
2023/06/20 01:50:16;;;;;;;6.75;4.93;;;23.00;99.90;;;;;;5032490;28;20210;-59
2023/06/20 01:52:44;;;;;;;5.75;4.75;;;23.00;99.90;;;;;;5032590;28;20210;-59
2023/06/20 01:55:13;;;;;;;8.38;5.03;;;23.00;99.90;;;;;;5032312;28;20218;-59
2023/06/20 01:57:42;;;;;;;6.25;4.97;;;22.90;99.90;;;;;;5031679;28;20202;-58
2023/06/20 02:00:11;;;;;;;6.80;4.30;;;22.90;99.90;;;;;;5032449;28;20210;-59
2023/06/20 02:02:38;;;;;;;5.22;4.43;;;22.80;99.90;;;;;;5032022;28;20288;-58
2023/06/20 02:05:08;;;;;;;5.88;4.05;;;22.80;99.90;;;;;;5032550;28;20206;-59
2023/06/20 02:07:36;;;;;;;5.20;4.40;;;22.70;99.90;;;;;;5031974;28;20209;-58
2023/06/20 02:10:04;;;;;;;7.85;4.60;;;22.70;99.90;;;;;;5032649;28;20206;-59
2023/06/20 02:12:33;;;;;;;4.75;4.18;;;22.60;99.90;;;;;;5032707;28;20232;-58
2023/06/20 02:15:00;;;;;;;5.82;4.10;;;22.50;99.90;;;;;;5032634;28;20210;-59
2023/06/20 02:17:28;;;;;;;8.50;4.45;;;22.50;99.90;;;;;;5031813;28;20217;-59
2023/06/20 02:19:55;;;;;;;4.93;4.00;;;22.50;99.90;;;;;;5032078;28;20202;-59
2023/06/20 02:22:26;;;;;;;6.95;4.75;;;22.50;99.90;;;;;;5031877;28;20242;-59
2023/06/20 02:24:57;;;;;;;4.60;3.90;;;22.40;99.90;;;;;;5031922;28;20202;-58
2023/06/20 02:27:25;;;;;;;3.83;3.40;;;22.40;99.90;;;;;;5031151;28;20280;-58
2023/06/20 02:29:56;;;;;;;4.50;4.10;;;22.30;99.90;;;;;;5031712;28;20706;-59
2023/06/20 02:32:24;;;;;;;4.45;3.60;;;22.20;99.90;;;;;;5031872;28;20202;-58
2023/06/20 02:34:53;;;;;;;4.40;3.92;;;22.10;99.90;;;;;;5031714;28;20206;-58
2023/06/20 02:37:21;;;;;;;4.55;3.92;;;22.00;99.90;;;;;;5031318;28;20720;-59
2023/06/20 02:39:47;;;;;;;5.07;3.80;;;21.80;99.90;;;;;;5031424;28;20213;-59
2023/06/20 02:42:14;;;;;;;5.32;3.85;;;21.70;99.90;;;;;;5031100;28;20236;-58
2023/06/20 02:44:41;;;;;;;4.80;4.20;;;21.70;99.90;;;;;;5031227;28;20691;-59
2023/06/20 02:47:18;;;;;;;4.57;4.13;;;21.70;99.90;;;;;;5031109;28;20233;-59
2023/06/20 02:49:51;;;;;;;4.70;4.30;;;21.70;99.90;;;;;;5031383;28;20206;-58
2023/06/20 02:52:27;;;;;;;5.03;4.10;;;21.70;99.90;;;;;;5031401;28;20206;-59
2023/06/20 02:55:00;;;;;;;4.75;4.05;;;21.60;99.90;;;;;;5031183;28;20301;-58
2023/06/20 02:57:29;;;;;;;4.18;3.78;;;21.60;99.90;;;;;;5031027;28;20229;-60
2023/06/20 03:00:05;;;;;;;4.45;4.07;;;21.60;99.90;;;;;;5031128;28;20206;-58
2023/06/20 03:02:34;;;;;;;5.05;4.05;;;21.30;99.90;;;;;;5030954;28;20229;-58
2023/06/20 03:05:04;;;;;;;4.55;4.15;;;21.10;99.90;;;;;;5030853;28;20218;-58
2023/06/20 03:07:33;;;;;;;4.72;4.20;;;20.80;99.90;;;;;;5031135;28;20206;-58
2023/06/20 03:10:03;;;;;;;7.05;4.15;;;20.60;99.90;;;;;;5030181;28;20201;-58
2023/06/20 03:12:31;;;;;;;5.05;4.22;;;20.40;99.90;;;;;;5031222;28;20214;-59
2023/06/20 03:14:57;;;;;;;4.53;4.07;;;20.30;99.90;;;;;;5030660;28;20206;-59
2023/06/20 03:17:24;;;;;;;4.38;3.97;;;20.40;99.90;;;;;;5030718;28;20457;-59
2023/06/20 03:19:52;;;;;;;4.57;4.18;;;20.40;99.90;;;;;;5030803;28;20214;-58
2023/06/20 03:22:19;;;;;;;5.57;4.57;;;20.40;99.90;;;;;;5030936;28;20225;-58
2023/06/20 03:24:47;;;;;;;5.72;4.82;;;20.40;99.90;;;;;;5030723;28;20264;-59
2023/06/20 03:27:14;;;;;;;5.93;5.32;;;20.50;99.90;;;;;;5030530;28;20244;-59
2023/06/20 03:29:41;;;;;;;5.80;5.10;;;20.60;99.90;;;;;;5030736;28;20206;-58
2023/06/20 03:32:07;;;;;;;6.00;5.40;;;20.60;99.90;;;;;;5030745;28;20210;-58
2023/06/20 03:34:34;;;;;;;7.30;4.82;;;20.60;99.90;;;;;;5030983;28;20210;-58
2023/06/20 03:37:02;;;;;;;5.82;4.60;;;20.60;99.90;;;;;;5030634;28;20226;-59
2023/06/20 03:39:29;;;;;;;6.18;5.00;;;20.60;99.90;;;;;;5030956;28;20214;-58
2023/06/20 03:41:55;;;;;;;5.57;4.40;;;20.50;99.90;;;;;;5030741;28;20206;-58
2023/06/20 03:44:22;;;;;;;5.10;4.60;;;20.40;99.90;;;;;;5030650;28;20235;-59
2023/06/20 03:46:49;;;;;;;5.38;4.82;;;20.40;99.90;;;;;;5030308;28;20249;-59
2023/06/20 03:49:15;;;;;;;6.70;4.63;;;20.30;99.90;;;;;;5030757;28;20206;-59
2023/06/20 03:51:42;;;;;;;5.05;4.65;;;20.20;99.90;;;;;;5030704;28;20209;-58
2023/06/20 03:54:10;;;;;;;5.13;4.63;;;20.10;99.90;;;;;;5030964;28;20278;-59
2023/06/20 03:56:37;;;;;;;5.82;4.82;;;20.20;99.90;;;;;;5030666;28;20230;-59
2023/06/20 03:59:03;;;;;;;4.85;4.32;;;20.20;99.90;;;;;;5030851;28;20684;-59
2023/06/20 04:01:30;;;;;;;6.15;4.65;;;20.30;99.90;;;;;;5031230;28;20210;-58
2023/06/20 04:03:57;;;;;;;5.90;4.43;;;20.30;99.90;;;;;;5031273;28;20222;-58
2023/06/20 04:06:30;;;;;;;6.32;4.10;;;20.40;99.90;;;;;;5031295;28;20226;-59
2023/06/20 04:08:57;;;;;;;4.47;4.07;;;20.40;99.90;;;;;;5030741;28;20285;-58
2023/06/20 04:11:25;;;;;;;4.63;4.22;;;20.40;99.90;;;;;;5030939;28;20640;-59
2023/06/20 04:13:52;;;;;;;5.78;5.25;;;20.50;99.90;;;;;;5030659;28;20656;-58
2023/06/20 04:16:19;;;;;;;5.85;4.10;;;20.60;99.90;;;;;;5030246;28;20716;-59
2023/06/20 04:18:45;;;;;;;4.95;4.05;;;20.70;99.90;;;;;;5030711;28;20311;-59
2023/06/20 04:21:12;;;;;;;5.13;4.30;;;20.80;99.90;;;;;;5032541;28;20206;-59
2023/06/20 04:23:39;;;;;;;6.60;4.93;;;20.90;99.90;;;;;;5033860;28;20325;-58
2023/06/20 04:26:06;;;;;;;6.32;4.60;;;21.00;99.90;;;;;;5033583;28;20234;-59
2023/06/20 04:28:34;;;;;;;5.93;3.97;;;21.10;99.90;;;;;;5033774;28;20206;-59
2023/06/20 04:31:01;;;;;;;6.43;4.78;;;21.20;99.90;;;;;;5034163;28;20206;-58
2023/06/20 04:33:27;;;;;;;5.95;4.22;;;21.30;99.90;;;;;;5034318;28;20572;-59
2023/06/20 04:35:57;;;;;;;4.82;4.05;;;21.40;99.90;;;;;;5033721;28;20241;-60
2023/06/20 04:38:23;;;;;;;4.28;3.88;;;21.50;99.90;;;;;;5033616;28;20308;-59
2023/06/20 04:40:50;;;;;;;4.38;3.88;;;21.60;99.90;;;;;;5033365;28;20210;-58
2023/06/20 04:43:17;;;;;;;3.72;3.42;;;21.70;99.90;;;;;;5033386;28;20622;-59
2023/06/20 04:45:45;;;;;;;5.45;3.65;;;21.90;99.90;;;;;;5033427;28;20727;-58
2023/06/20 04:48:12;;;;;;;3.72;3.33;;;22.60;99.90;;;;;;5033453;28;20210;-60
2023/06/20 04:50:38;;;;;;;6.10;3.83;;;23.80;99.90;;;;;;5033231;28;20280;-59
2023/06/20 04:53:05;;;;;;;3.53;3.22;;;25.30;99.90;;;;;;5033324;28;20253;-59
2023/06/20 04:55:32;;;;;;;4.50;3.40;;;26.60;99.90;;;;;;5033162;28;20256;-59
2023/06/20 04:57:58;;;;;;;4.95;3.30;;;27.30;99.90;;;;;;5033120;28;20214;-59
2023/06/20 05:00:27;;;;;;;4.53;3.03;;;28.10;99.90;;;;;;5033428;28;20584;-59
2023/06/20 05:02:57;;;;;;;4.85;3.53;;;28.70;99.90;;;;;;5032989;28;20598;-61
2023/06/20 05:05:24;;;;;;;5.15;3.88;;;28.70;99.90;;;;;;5033195;28;20227;-59
2023/06/20 05:07:51;;;;;;;4.65;3.20;;;28.70;99.90;;;;;;5032861;28;20214;-59
2023/06/20 05:10:17;;;;;;;3.35;3.05;;;29.10;99.90;;;;;;5032999;28;20210;-59
2023/06/20 05:12:44;;;;;;;5.10;3.30;;;29.80;99.90;;;;;;5033589;28;20210;-59
2023/06/20 05:15:11;;;;;;;4.07;2.75;;;30.30;99.90;;;;;;5032954;28;20202;-59
2023/06/20 05:17:38;;;;;;;3.95;2.75;;;30.70;99.90;;;;;;5032776;28;20217;-59
2023/06/20 05:20:08;;;;;;;3.20;2.20;;;31.40;99.90;;;;;;5032871;28;20222;-60
2023/06/20 05:22:35;;;;;;;3.20;2.60;;;32.20;99.90;;;;;;5032826;28;20275;-60
2023/06/20 05:25:02;;;;;;;6.88;2.67;;;32.60;97.80;;;;;;5032849;28;20225;-59
2023/06/20 05:27:28;;;;;;;2.45;2.20;;;32.90;95.90;;;;;;5032854;28;20688;-60
2023/06/20 05:29:55;;;;;;;3.20;2.13;;;33.30;94.70;;;;;;5033229;28;20209;-60
2023/06/20 05:32:22;;;;;;;3.08;1.60;;;33.80;93.20;;;;;;5031942;28;20210;-60
2023/06/20 05:34:48;;;;;;;3.42;1.80;;;34.30;90.20;;;;;;5033253;28;20202;-59
2023/06/20 05:37:17;;;;;;;3.05;1.92;;;35.00;85.10;;;;;;5032555;28;20237;-60
2023/06/20 05:39:43;;;;;;;3.90;2.00;;;35.50;82.40;;;;;;5032495;28;20315;-60
2023/06/20 05:42:10;;;;;;;3.00;1.95;;;35.70;81.10;;;;;;5032782;28;20206;-60
2023/06/20 05:44:37;;;;;;;4.53;2.30;;;36.20;77.40;;;;;;5032399;28;20777;-60
2023/06/20 05:47:04;;;;;;;3.00;1.80;;;36.50;77.60;;;;;;5032434;28;20288;-61
2023/06/20 05:49:31;;;;;;;2.80;2.13;;;37.00;75.00;;;;;;5032589;28;20354;-60
2023/06/20 05:51:58;;;;;;;2.35;1.80;;;37.60;72.30;;;;;;5032557;28;20233;-61
2023/06/20 05:54:26;;;;;;;2.78;1.95;;;38.40;68.80;;;;;;5032509;28;20264;-60
2023/06/20 05:56:56;;;;;;;4.40;2.25;;;39.00;65.90;;;;;;5032307;28;20272;-60
2023/06/20 05:59:22;;;;;;;3.63;2.05;;;39.20;63.70;;;;;;5032345;28;20229;-60
2023/06/20 06:01:49;;;;;;;2.65;1.90;;;38.40;66.00;;;;;;5032171;28;20202;-60
2023/06/20 06:04:16;;;;;;;2.47;1.95;;;38.20;66.10;;;;;;5031803;28;20663;-59
2023/06/20 06:06:43;;;;;;;3.13;1.63;;;39.00;63.70;;;;;;5031866;28;20233;-59
2023/06/20 06:09:10;;;;;;;4.68;2.10;;;39.60;63.20;;;;;;5031950;28;20214;-61
2023/06/20 06:11:38;;;;;;;3.42;1.90;;;40.40;60.40;;;;;;5032382;28;20201;-60
2023/06/20 06:14:05;;;;;;;4.20;2.20;;;41.00;59.10;;;;;;5032171;28;20206;-60
2023/06/20 06:16:31;;;;;;;2.35;1.80;;;41.70;56.60;;;;;;5031626;28;20222;-61
2023/06/20 06:19:00;;;;;;;4.55;1.90;;;42.30;54.80;;;;;;5031859;28;20209;-60
2023/06/20 06:21:27;;;;;;;2.65;1.77;;;42.20;54.60;;;;;;5032410;28;20209;-60
2023/06/20 06:23:54;;;;;;;4.10;2.08;;;42.00;54.40;;;;;;5032080;28;20328;-60
2023/06/20 06:26:20;;;;;;;2.65;1.88;;;42.20;54.40;;;;;;5031520;28;20321;-60
2023/06/20 06:28:49;;;;;;;5.65;1.90;;;42.50;53.70;;;;;;5031509;28;20216;-59
2023/06/20 06:31:24;;;;;;;5.22;2.20;;;42.90;52.80;;;;;;5031871;28;20202;-59
2023/06/20 06:33:51;;;;;;;5.60;4.30;;;43.10;51.90;;;;;;5032039;28;20216;-61
2023/06/20 06:36:19;;;;;;;5.03;2.30;;;42.90;51.80;;;;;;5031730;28;20608;-63
2023/06/20 06:38:48;;;;;;;5.60;2.10;;;43.20;51.20;;;;;;5028349;28;20210;-62
2023/06/20 06:41:15;;;;;;;4.70;2.10;;;43.80;49.80;;;;;;5031487;28;20206;-62
2023/06/20 06:43:42;;;;;;;3.75;2.05;;;44.10;49.70;;;;;;5031788;28;20221;-68
2023/06/20 06:46:10;;;;;;;4.93;2.20;;;44.10;49.00;;;;;;5031105;28;20226;-62
2023/06/20 06:48:38;;;;;;;4.63;2.03;;;44.30;48.20;;;;;;5031551;28;20214;-62
2023/06/20 06:51:05;;;;;;;2.85;2.00;;;44.50;47.50;;;;;;5031211;28;20210;-62
2023/06/20 06:53:31;;;;;;;2.60;2.10;;;44.60;47.20;;;;;;5031386;28;20209;-62
2023/06/20 06:55:58;;;;;;;3.35;1.83;;;44.80;46.80;;;;;;5030618;28;20317;-62
2023/06/20 06:58:25;;;;;;;3.13;2.17;;;44.80;46.90;;;;;;5030988;28;20526;-62
2023/06/20 07:00:52;;;;;;;5.05;2.10;;;44.80;46.50;;;;;;5031132;28;20609;-62
2023/06/20 07:03:19;;;;;;;4.75;2.55;;;44.80;46.10;;;;;;5031376;28;20209;-61
2023/06/20 07:05:46;;;;;;;3.03;2.25;;;44.40;46.30;;;;;;5030650;28;20742;-61
2023/06/20 07:08:13;;;;;;;6.68;2.40;;;44.30;46.50;;;;;;5030608;28;20578;-61
2023/06/20 07:10:39;;;;;;;4.82;2.50;;;44.30;46.40;;;;;;5031209;28;20201;-61
2023/06/20 07:13:06;;;;;;;4.72;2.30;;;44.40;46.20;;;;;;5030749;28;20210;-60
2023/06/20 07:15:33;;;;;;;2.75;2.28;;;44.20;46.20;;;;;;5031040;28;20230;-61
2023/06/20 07:18:00;;;;;;;3.83;2.30;;;44.20;46.00;;;;;;5030618;28;20205;-62
2023/06/20 07:20:28;;;;;;;9.35;2.50;;;44.30;46.00;;;;;;5030692;28;20205;-62
2023/06/20 07:22:55;;;;;;;5.70;2.25;;;44.30;46.00;;;;;;5030854;28;20205;-61
2023/06/20 07:25:21;;;;;;;4.25;2.33;;;44.30;45.90;;;;;;5057702;23;20233;-57
2023/06/20 07:27:48;;;;;;;3.33;2.25;;;44.40;45.90;;;;;;5049121;28;20250;-56
2023/06/20 07:30:16;;;;;;;6.00;2.30;;;44.80;45.50;;;;;;5050865;28;20582;-57
2023/06/20 07:32:43;;;;;;;4.55;2.33;;;45.20;44.90;;;;;;5050999;28;20212;-58
2023/06/20 07:35:10;;;;;;;4.47;2.20;;;45.60;44.50;;;;;;5051070;28;20224;-59
2023/06/20 07:37:40;;;;;;;3.60;2.00;;;45.60;44.40;;;;;;5048473;28;20228;-60
2023/06/20 07:40:08;;;;;;;4.07;2.05;;;45.60;44.60;;;;;;5049387;28;20204;-59
2023/06/20 07:42:35;;;;;;;3.80;2.20;;;45.80;44.20;;;;;;5051180;28;20207;-59
2023/06/20 07:45:02;;;;;;;3.38;2.33;;;46.20;43.90;;;;;;5050706;28;20631;-58
2023/06/20 07:47:28;;;;;;;3.10;2.17;;;46.60;43.40;;;;;;5050621;28;20225;-58
2023/06/20 07:49:55;;;;;;;3.88;2.35;;;46.80;42.90;;;;;;5051197;28;20672;-58
2023/06/20 07:52:22;;;;;;;2.58;2.13;;;47.00;42.70;;;;;;5050912;28;20211;-59
2023/06/20 07:54:50;;;;;;;3.38;2.47;;;47.10;42.10;;;;;;5050811;28;20304;-57
2023/06/20 07:57:17;;;;;;;5.78;2.42;;;47.00;42.20;;;;;;5054525;28;20237;-58
2023/06/20 07:59:43;;;;;;;4.75;2.63;;;46.60;41.90;;;;;;5055267;28;20209;-59
2023/06/20 08:02:10;;;;;;;5.38;2.60;;;46.00;42.40;;;;;;5055360;28;20205;-59
2023/06/20 08:04:37;;;;;;;4.22;2.25;;;45.30;42.60;;;;;;5054793;28;20224;-58
2023/06/20 08:07:04;;;;;;;5.50;3.08;;;44.50;43.50;;;;;;5054503;28;20225;-58
2023/06/20 08:09:30;;;;;;;4.53;3.05;;;44.00;44.30;;;;;;5055001;28;20205;-59
2023/06/20 08:11:58;;;;;;;4.20;2.60;;;43.50;44.60;;;;;;5054827;28;20562;-58
2023/06/20 08:14:25;;;;;;;3.78;2.63;;;43.00;45.50;;;;;;5054565;28;20205;-57
2023/06/20 08:16:52;;;;;;;3.35;2.78;;;42.80;46.20;;;;;;5054131;28;20232;-58
2023/06/20 08:19:18;;;;;;;4.97;2.55;;;42.60;46.20;;;;;;5054325;28;20271;-57
2023/06/20 08:21:45;;;;;;;3.88;2.72;;;42.40;47.00;;;;;;5053954;28;20201;-58
2023/06/20 08:24:12;;;;;;;5.80;2.90;;;42.40;46.50;;;;;;5054527;28;20241;-56
2023/06/20 08:26:39;;;;;;;7.15;3.05;;;42.30;46.80;;;;;;5053773;28;20244;-60
2023/06/20 08:29:08;;;;;;;4.22;2.80;;;42.20;46.90;;;;;;5053937;28;20582;-62
2023/06/20 08:31:37;;;;;;;4.60;2.78;;;41.90;47.70;;;;;;5054380;28;20341;-58
2023/06/20 08:34:04;;;;;;;4.85;2.92;;;41.80;47.70;;;;;;5053735;28;20208;-59
2023/06/20 08:36:32;;;;;;;4.32;3.15;;;41.30;49.10;;;;;;5053515;28;20228;-57
2023/06/20 08:38:59;;;;;;;4.85;2.90;;;41.20;48.10;;;;;;5054158;28;20209;-59
2023/06/20 08:41:26;;;;;;;6.63;3.13;;;40.90;49.40;;;;;;5053918;28;20208;-60
2023/06/20 08:43:53;;;;;;;6.43;3.15;;;41.20;47.00;;;;;;5053972;28;20295;-60
2023/06/20 08:46:24;;;;;;;4.32;2.97;;;41.30;47.30;;;;;;5053012;28;20240;-59
2023/06/20 08:48:51;;;;;;;4.45;2.88;;;41.00;47.90;;;;;;5054308;28;20275;-60
2023/06/20 08:51:18;;;;;;;5.57;2.88;;;40.60;48.70;;;;;;5054054;28;20693;-61
2023/06/20 08:53:47;;;;;;;7.05;3.30;;;40.40;49.10;;;;;;5053717;28;20674;-60
2023/06/20 08:56:15;;;;;;;6.60;3.25;;;40.30;49.50;;;;;;5053168;28;20313;-60
2023/06/20 08:58:42;;;;;;;4.65;3.28;;;39.80;50.10;;;;;;5053484;28;20237;-59
2023/06/20 09:01:09;;;;;;;5.35;3.53;;;38.90;51.00;;;;;;5053521;28;20209;-61
2023/06/20 09:03:37;;;;;;;4.65;3.00;;;37.70;52.70;;;;;;5053592;28;20300;-60
2023/06/20 09:06:04;;;;;;;5.90;3.25;;;36.70;54.20;;;;;;5053169;28;20697;-58
2023/06/20 09:08:36;;;;;;;6.78;3.45;;;35.90;55.50;;;;;;5053466;28;20260;-60
2023/06/20 09:11:07;;;;;;;6.32;3.80;;;35.20;55.90;;;;;;5053348;28;20212;-63
2023/06/20 09:13:34;;;;;;;5.25;3.58;;;34.60;57.30;;;;;;5039137;28;20211;-58
2023/06/20 09:16:06;;;;;;;6.90;3.75;;;34.10;58.30;;;;;;5032824;28;20231;-60
2023/06/20 09:18:34;;;;;;;6.15;3.58;;;33.70;59.20;;;;;;5033575;28;20268;-60
2023/06/20 09:21:02;;;;;;;5.78;3.92;;;33.30;59.90;;;;;;5033532;28;20462;-61
2023/06/20 09:23:30;;;;;;;6.90;3.70;;;33.00;61.10;;;;;;5033062;28;20207;-62
2023/06/20 09:25:57;;;;;;;5.10;3.80;;;32.60;61.90;;;;;;5032703;28;20269;-60
2023/06/20 09:28:24;;;;;;;5.93;3.63;;;32.30;63.30;;;;;;5032895;28;20256;-62
2023/06/20 09:30:51;;;;;;;8.00;4.10;;;32.30;63.90;;;;;;5033585;28;20269;-66
2023/06/20 09:33:18;;;;;;;7.15;3.92;;;32.20;64.00;;;;;;5033101;28;20212;-63
2023/06/20 09:35:45;;;;;;;7.38;3.85;;;32.20;64.20;;;;;;5033101;28;20313;-63
2023/06/20 09:38:13;;;;;;;5.97;3.17;;;32.20;63.10;;;;;;5032909;28;20202;-60
2023/06/20 09:40:44;;;;;;;6.30;3.78;;;32.20;64.10;;;;;;5032846;28;20209;-60
2023/06/20 09:43:11;;;;;;;7.63;3.97;;;32.20;64.10;;;;;;5033130;28;20329;-59
2023/06/20 09:45:37;;;;;;;4.63;3.50;;;32.30;64.00;;;;;;5032972;28;20233;-60
2023/06/20 09:48:05;;;;;;;6.50;3.70;;;32.40;64.30;;;;;;5033169;28;20206;-59
2023/06/20 09:50:33;;;;;;;4.93;3.58;;;32.50;64.00;;;;;;5032911;28;20272;-60
2023/06/20 09:53:06;;;;;;;6.07;3.90;;;32.60;63.10;;;;;;5032555;28;20213;-59
2023/06/20 09:55:35;;;;;;;8.80;3.38;;;32.40;63.20;;;;;;5032510;28;20203;-59
2023/06/20 09:58:04;;;;;;;5.32;3.50;;;32.40;62.30;;;;;;5032439;28;20727;-60
2023/06/20 10:00:31;;;;;;;4.18;3.17;;;32.50;62.30;;;;;;5032647;28;20202;-59
2023/06/20 10:03:00;;;;;;;6.03;3.90;;;32.60;62.70;;;;;;5032556;28;20213;-59
2023/06/20 10:05:29;;;;;;;7.63;3.33;;;32.60;62.80;;;;;;5032392;28;20322;-59
2023/06/20 10:07:57;;;;;;;5.88;3.50;;;32.70;62.50;;;;;;5039687;28;20329;-64
2023/06/20 10:10:25;;;;;;;8.07;3.72;;;32.70;62.60;;;;;;5051831;28;20263;-62
2023/06/20 10:12:55;;;;;;;6.85;3.70;;;32.90;62.30;;;;;;5048966;28;20205;-63
2023/06/20 10:15:22;;;;;;;5.28;3.63;;;32.90;61.80;;;;;;5050238;28;20216;-59
2023/06/20 10:17:49;;;;;;;8.18;3.75;;;33.10;61.30;;;;;;5050437;28;20221;-59
2023/06/20 10:20:27;;;;;;;6.68;3.92;;;33.20;60.40;;;;;;5050333;28;20210;-60
2023/06/20 10:22:58;;;;;;;5.78;3.80;;;33.40;60.90;;;;;;5049708;28;20645;-59
2023/06/20 10:25:26;;;;;;;7.07;3.45;;;33.50;60.10;;;;;;5050924;28;20728;-59
2023/06/20 10:27:57;;;;;;;5.72;4.03;;;33.70;59.30;;;;;;5050614;28;20228;-61
2023/06/20 10:30:56;;;;;;;4.43;3.60;;;33.80;58.30;;;;;;5051274;28;20220;-61
2023/06/20 10:33:25;;;;;;;10.20;3.90;;;33.90;57.40;;;;;;5051835;28;20205;-61
2023/06/20 10:35:55;;;;;;;6.00;3.58;;;34.00;57.00;;;;;;5051496;28;20599;-62
2023/06/20 10:38:21;;;;;;;7.05;3.75;;;34.00;56.00;;;;;;5051249;28;20767;-62
2023/06/20 10:40:48;;;;;;;8.13;4.60;;;34.00;55.80;;;;;;5049939;28;20206;-60
2023/06/20 10:43:22;;;;;;;2.97;2.67;;;34.20;56.20;;;;;;5051070;28;20228;-64
2023/06/20 10:45:53;;;;;;;6.63;3.58;;;34.20;55.00;;;;;;5051372;28;20225;-61
2023/06/20 10:48:20;;;;;;;9.60;4.05;;;34.30;55.20;;;;;;5050696;28;20477;-62
2023/06/20 10:50:47;;;;;;;6.15;3.53;;;34.40;55.90;;;;;;5051615;28;20233;-62
2023/06/20 10:53:15;;;;;;;7.00;3.78;;;34.50;56.20;;;;;;5048059;28;20275;-62
2023/06/20 10:55:41;;;;;;;4.97;3.42;;;34.50;56.30;;;;;;5050994;28;20218;-61
2023/06/20 10:58:08;;;;;;;4.10;3.13;;;34.50;56.10;;;;;;5051043;28;20205;-62
2023/06/20 11:00:36;;;;;;;6.28;3.67;;;34.50;56.40;;;;;;5051686;28;20255;-58
2023/06/20 11:03:03;;;;;;;6.93;3.92;;;34.60;56.10;;;;;;5051406;28;20209;-60
2023/06/20 11:05:30;;;;;;;4.25;3.00;;;34.50;55.90;;;;;;5050910;28;20284;-61
2023/06/20 11:07:59;;;;;;;9.13;3.53;;;34.50;55.30;;;;;;5045165;28;20505;-61
2023/06/20 11:10:30;;;;;;;4.40;3.03;;;34.60;53.70;;;;;;5050907;28;20243;-60
2023/06/20 11:12:58;;;;;;;5.55;3.40;;;34.70;53.80;;;;;;5051352;28;20256;-60
2023/06/20 11:15:29;;;;;;;5.57;3.63;;;34.80;54.20;;;;;;5051491;28;20209;-62
2023/06/20 11:17:58;;;;;;;8.40;3.85;;;34.90;54.20;;;;;;5047734;28;20212;-62
2023/06/20 11:20:26;;;;;;;5.38;3.47;;;35.10;53.70;;;;;;5050783;28;20202;-61
2023/06/20 11:22:55;;;;;;;5.78;3.55;;;35.20;53.20;;;;;;5051329;28;20209;-63
2023/06/20 11:25:32;;;;;;;7.30;3.83;;;35.30;52.60;;;;;;5047373;28;20236;-62
2023/06/20 11:28:05;;;;;;;6.22;3.17;;;35.20;52.60;;;;;;5051080;28;20209;-63
2023/06/20 11:30:34;;;;;;;4.90;3.20;;;35.20;52.50;;;;;;5049058;28;20295;-62
2023/06/20 11:33:05;;;;;;;4.25;3.00;;;35.30;52.20;;;;;;5049760;28;20206;-62
2023/06/20 11:35:49;;;;;;;4.78;3.15;;;35.50;52.10;;;;;;5050054;28;20229;-64
2023/06/20 11:38:19;;;;;;;5.20;3.20;;;35.60;51.60;;;;;;5048595;28;20209;-60
2023/06/20 11:40:46;;;;;;;5.32;3.35;;;35.60;51.10;;;;;;5051095;28;20206;-62
2023/06/20 11:43:23;;;;;;;4.40;3.50;;;35.60;50.90;;;;;;5050886;28;20202;-62
2023/06/20 11:45:50;;;;;;;7.90;3.72;;;35.60;50.20;;;;;;5050816;28;20294;-59
2023/06/20 11:48:19;;;;;;;12.13;3.70;;;35.60;50.50;;;;;;5051071;28;20201;-59
2023/06/20 11:50:56;;;;;;;6.57;3.20;;;35.70;50.90;;;;;;5051589;28;20216;-60
2023/06/20 11:53:26;;;;;;;6.07;3.92;;;35.80;50.60;;;;;;5050967;28;20666;-58
2023/06/20 11:55:54;;;;;;;6.85;3.70;;;35.90;50.70;;;;;;5050320;28;20225;-58
2023/06/20 11:58:21;;;;;;;6.47;3.45;;;35.90;50.70;;;;;;5050727;28;20671;-58
2023/06/20 12:01:00;;;;;;;7.70;3.80;;;36.00;52.00;;;;;;5050913;28;20260;-59
2023/06/20 12:03:28;;;;;;;6.50;3.47;;;36.00;50.60;;;;;;5050768;28;20221;-58
2023/06/20 12:05:56;;;;;;;4.72;3.58;;;36.00;51.00;;;;;;5050082;28;20328;-59
2023/06/20 12:08:24;;;;;;;7.35;3.72;;;36.00;51.10;;;;;;5050655;28;20662;-58
2023/06/20 12:10:58;;;;;;;6.60;3.45;;;36.00;50.60;;;;;;5050602;28;20233;-58
2023/06/20 12:13:25;;;;;;;6.00;3.70;;;36.00;51.00;;;;;;5050745;28;20601;-57
2023/06/20 12:15:52;;;;;;;7.95;3.85;;;36.00;51.00;;;;;;5050818;28;20343;-59
2023/06/20 12:18:19;;;;;;;8.10;3.53;;;36.00;50.10;;;;;;5050094;28;20271;-61
2023/06/20 12:20:47;;;;;;;9.35;3.80;;;35.90;50.70;;;;;;5050993;28;20201;-60
2023/06/20 12:23:14;;;;;;;6.07;3.47;;;35.90;50.60;;;;;;5050880;28;20667;-61
2023/06/20 12:25:42;;;;;;;6.55;3.75;;;35.60;50.80;;;;;;5049967;28;20238;-60
2023/06/20 12:28:09;;;;;;;9.73;3.53;;;35.60;51.20;;;;;;5050845;28;20233;-60
2023/06/20 12:30:35;;;;;;;6.72;3.80;;;35.80;50.70;;;;;;5050412;28;20738;-59
2023/06/20 12:33:02;;;;;;;6.40;3.72;;;35.90;50.50;;;;;;5050825;28;20209;-60
2023/06/20 12:35:30;;;;;;;6.50;3.45;;;35.80;50.70;;;;;;5050144;28;20682;-58
2023/06/20 12:37:58;;;;;;;6.88;3.65;;;35.70;50.50;;;;;;5050442;28;20259;-59
2023/06/20 12:40:24;;;;;;;8.50;3.58;;;35.70;50.20;;;;;;5050436;28;20690;-63
2023/06/20 12:42:52;;;;;;;6.25;3.63;;;35.40;49.80;;;;;;5053429;28;20209;-59
2023/06/20 12:45:18;;;;;;;8.45;4.00;;;35.00;50.70;;;;;;5054163;28;20225;-59
2023/06/20 12:47:45;;;;;;;6.70;3.65;;;35.00;51.00;;;;;;5053670;28;20209;-59
2023/06/20 12:50:12;;;;;;;9.65;3.67;;;35.10;50.60;;;;;;5054009;28;20202;-58